sensor_id;sensor_type;location;lat;lon;timestamp;P1;durP1;ratioP1;P2;durP2;ratioP2
50547;SDS011;38013;48.810;8.818;2022-07-23T00:01:34;8.00;;;3.83;;
50547;SDS011;38013;48.810;8.818;2022-07-23T00:04:00;10.35;;;3.83;;
50547;SDS011;38013;48.810;8.818;2022-07-23T00:06:25;5.07;;;3.60;;
50547;SDS011;38013;48.810;8.818;2022-07-23T00:08:51;5.95;;;4.03;;
50547;SDS011;38013;48.810;8.818;2022-07-23T00:11:17;6.38;;;3.58;;
50547;SDS011;38013;48.810;8.818;2022-07-23T00:13:43;5.60;;;3.80;;
50547;SDS011;38013;48.810;8.818;2022-07-23T00:16:09;7.78;;;3.28;;
50547;SDS011;38013;48.810;8.818;2022-07-23T00:18:35;5.82;;;3.60;;
50547;SDS011;38013;48.810;8.818;2022-07-23T00:21:01;7.85;;;3.58;;
50547;SDS011;38013;48.810;8.818;2022-07-23T00:23:27;4.60;;;3.40;;
50547;SDS011;38013;48.810;8.818;2022-07-23T00:25:54;5.70;;;3.10;;
50547;SDS011;38013;48.810;8.818;2022-07-23T00:28:20;6.10;;;3.60;;
50547;SDS011;38013;48.810;8.818;2022-07-23T00:30:46;6.45;;;3.75;;
50547;SDS011;38013;48.810;8.818;2022-07-23T00:33:12;4.80;;;3.33;;
50547;SDS011;38013;48.810;8.818;2022-07-23T00:35:38;4.65;;;3.42;;
50547;SDS011;38013;48.810;8.818;2022-07-23T00:38:06;5.43;;;3.40;;
50547;SDS011;38013;48.810;8.818;2022-07-23T00:40:33;5.38;;;3.38;;
50547;SDS011;38013;48.810;8.818;2022-07-23T00:43:00;6.53;;;3.50;;
50547;SDS011;38013;48.810;8.818;2022-07-23T00:45:26;5.68;;;3.33;;
50547;SDS011;38013;48.810;8.818;2022-07-23T00:47:52;4.10;;;3.03;;
50547;SDS011;38013;48.810;8.818;2022-07-23T00:50:18;4.72;;;3.13;;
50547;SDS011;38013;48.810;8.818;2022-07-23T00:52:44;6.95;;;3.35;;
50547;SDS011;38013;48.810;8.818;2022-07-23T00:55:11;6.95;;;3.42;;
50547;SDS011;38013;48.810;8.818;2022-07-23T00:57:37;4.68;;;3.28;;
50547;SDS011;38013;48.810;8.818;2022-07-23T01:00:05;4.53;;;3.28;;
50547;SDS011;38013;48.810;8.818;2022-07-23T01:02:34;5.22;;;3.50;;
50547;SDS011;38013;48.810;8.818;2022-07-23T01:05:00;4.70;;;3.13;;
50547;SDS011;38013;48.810;8.818;2022-07-23T01:07:26;5.95;;;3.35;;
50547;SDS011;38013;48.810;8.818;2022-07-23T01:09:53;7.63;;;3.40;;
50547;SDS011;38013;48.810;8.818;2022-07-23T01:12:20;7.07;;;3.50;;
50547;SDS011;38013;48.810;8.818;2022-07-23T01:14:53;5.90;;;3.20;;
50547;SDS011;38013;48.810;8.818;2022-07-23T01:17:24;7.03;;;3.45;;
50547;SDS011;38013;48.810;8.818;2022-07-23T01:19:51;6.97;;;3.55;;
50547;SDS011;38013;48.810;8.818;2022-07-23T01:22:17;5.65;;;3.17;;
50547;SDS011;38013;48.810;8.818;2022-07-23T01:24:46;5.80;;;3.67;;
50547;SDS011;38013;48.810;8.818;2022-07-23T01:27:12;5.43;;;3.10;;
50547;SDS011;38013;48.810;8.818;2022-07-23T01:29:39;4.75;;;3.30;;
50547;SDS011;38013;48.810;8.818;2022-07-23T01:32:14;5.68;;;3.90;;
50547;SDS011;38013;48.810;8.818;2022-07-23T01:34:39;5.55;;;3.85;;
50547;SDS011;38013;48.810;8.818;2022-07-23T01:37:06;8.07;;;3.90;;
50547;SDS011;38013;48.810;8.818;2022-07-23T01:39:31;6.15;;;3.45;;
50547;SDS011;38013;48.810;8.818;2022-07-23T01:41:57;7.25;;;3.70;;
50547;SDS011;38013;48.810;8.818;2022-07-23T01:44:24;5.35;;;3.75;;
50547;SDS011;38013;48.810;8.818;2022-07-23T01:46:50;6.10;;;4.28;;
50547;SDS011;38013;48.810;8.818;2022-07-23T01:49:17;6.88;;;4.28;;
50547;SDS011;38013;48.810;8.818;2022-07-23T01:52:02;5.70;;;4.55;;
50547;SDS011;38013;48.810;8.818;2022-07-23T01:54:35;6.05;;;4.00;;
50547;SDS011;38013;48.810;8.818;2022-07-23T01:57:05;5.82;;;4.03;;
50547;SDS011;38013;48.810;8.818;2022-07-23T01:59:32;7.43;;;4.50;;
50547;SDS011;38013;48.810;8.818;2022-07-23T02:01:58;5.47;;;4.13;;
50547;SDS011;38013;48.810;8.818;2022-07-23T02:04:24;7.05;;;3.90;;
50547;SDS011;38013;48.810;8.818;2022-07-23T02:06:51;5.40;;;3.67;;
50547;SDS011;38013;48.810;8.818;2022-07-23T02:09:17;6.63;;;3.65;;
50547;SDS011;38013;48.810;8.818;2022-07-23T02:11:45;6.05;;;3.53;;
50547;SDS011;38013;48.810;8.818;2022-07-23T02:14:11;6.20;;;3.97;;
50547;SDS011;38013;48.810;8.818;2022-07-23T02:16:37;6.82;;;4.15;;
50547;SDS011;38013;48.810;8.818;2022-07-23T02:19:04;6.28;;;3.88;;
50547;SDS011;38013;48.810;8.818;2022-07-23T02:21:29;5.93;;;4.10;;
50547;SDS011;38013;48.810;8.818;2022-07-23T02:23:55;5.25;;;4.10;;
50547;SDS011;38013;48.810;8.818;2022-07-23T02:26:21;5.25;;;3.95;;
50547;SDS011;38013;48.810;8.818;2022-07-23T02:28:50;6.30;;;4.40;;
50547;SDS011;38013;48.810;8.818;2022-07-23T02:31:17;5.50;;;4.30;;
50547;SDS011;38013;48.810;8.818;2022-07-23T02:33:43;6.40;;;4.25;;
50547;SDS011;38013;48.810;8.818;2022-07-23T02:36:09;6.03;;;3.90;;
50547;SDS011;38013;48.810;8.818;2022-07-23T02:38:35;5.90;;;4.13;;
50547;SDS011;38013;48.810;8.818;2022-07-23T02:41:01;6.10;;;4.07;;
50547;SDS011;38013;48.810;8.818;2022-07-23T02:43:27;6.35;;;4.22;;
50547;SDS011;38013;48.810;8.818;2022-07-23T02:45:54;8.98;;;3.90;;
50547;SDS011;38013;48.810;8.818;2022-07-23T02:48:20;8.10;;;4.55;;
50547;SDS011;38013;48.810;8.818;2022-07-23T02:50:47;4.90;;;3.42;;
50547;SDS011;38013;48.810;8.818;2022-07-23T02:55:44;8.40;;;3.92;;
50547;SDS011;38013;48.810;8.818;2022-07-23T02:58:10;5.30;;;3.70;;
50547;SDS011;38013;48.810;8.818;2022-07-23T03:00:35;5.70;;;3.78;;
50547;SDS011;38013;48.810;8.818;2022-07-23T03:03:01;6.05;;;3.80;;
50547;SDS011;38013;48.810;8.818;2022-07-23T03:05:28;5.38;;;3.88;;
50547;SDS011;38013;48.810;8.818;2022-07-23T03:07:54;6.75;;;4.40;;
50547;SDS011;38013;48.810;8.818;2022-07-23T03:10:20;7.47;;;4.10;;
50547;SDS011;38013;48.810;8.818;2022-07-23T03:12:45;6.68;;;4.13;;
50547;SDS011;38013;48.810;8.818;2022-07-23T03:15:11;6.45;;;3.80;;
50547;SDS011;38013;48.810;8.818;2022-07-23T03:17:37;6.28;;;4.18;;
50547;SDS011;38013;48.810;8.818;2022-07-23T03:20:03;5.18;;;3.78;;
50547;SDS011;38013;48.810;8.818;2022-07-23T03:22:29;6.78;;;4.07;;
50547;SDS011;38013;48.810;8.818;2022-07-23T03:24:55;4.47;;;3.40;;
50547;SDS011;38013;48.810;8.818;2022-07-23T03:27:28;7.72;;;4.03;;
50547;SDS011;38013;48.810;8.818;2022-07-23T03:29:56;5.97;;;3.90;;
50547;SDS011;38013;48.810;8.818;2022-07-23T03:32:24;5.28;;;3.50;;
50547;SDS011;38013;48.810;8.818;2022-07-23T03:34:50;6.72;;;3.85;;
50547;SDS011;38013;48.810;8.818;2022-07-23T03:37:17;5.78;;;4.03;;
50547;SDS011;38013;48.810;8.818;2022-07-23T03:39:44;7.95;;;3.67;;
50547;SDS011;38013;48.810;8.818;2022-07-23T03:42:10;5.82;;;3.75;;
50547;SDS011;38013;48.810;8.818;2022-07-23T03:44:36;5.43;;;3.60;;
50547;SDS011;38013;48.810;8.818;2022-07-23T03:47:05;6.55;;;3.83;;
50547;SDS011;38013;48.810;8.818;2022-07-23T03:49:31;5.90;;;3.87;;
50547;SDS011;38013;48.810;8.818;2022-07-23T03:51:58;4.57;;;3.30;;
50547;SDS011;38013;48.810;8.818;2022-07-23T03:54:24;4.97;;;3.33;;
50547;SDS011;38013;48.810;8.818;2022-07-23T03:56:50;4.93;;;3.40;;
50547;SDS011;38013;48.810;8.818;2022-07-23T03:59:16;6.35;;;3.75;;
50547;SDS011;38013;48.810;8.818;2022-07-23T04:01:41;5.95;;;3.55;;
50547;SDS011;38013;48.810;8.818;2022-07-23T04:04:07;5.72;;;3.42;;
50547;SDS011;38013;48.810;8.818;2022-07-23T04:06:35;5.28;;;3.50;;
50547;SDS011;38013;48.810;8.818;2022-07-23T04:09:02;6.57;;;3.17;;
50547;SDS011;38013;48.810;8.818;2022-07-23T04:11:31;4.60;;;3.08;;
50547;SDS011;38013;48.810;8.818;2022-07-23T04:13:57;4.55;;;3.50;;
50547;SDS011;38013;48.810;8.818;2022-07-23T04:16:23;6.05;;;3.22;;
50547;SDS011;38013;48.810;8.818;2022-07-23T04:18:49;5.70;;;3.53;;
50547;SDS011;38013;48.810;8.818;2022-07-23T04:21:18;6.28;;;3.47;;
50547;SDS011;38013;48.810;8.818;2022-07-23T04:23:45;5.25;;;3.40;;
50547;SDS011;38013;48.810;8.818;2022-07-23T04:26:12;5.03;;;3.22;;
50547;SDS011;38013;48.810;8.818;2022-07-23T04:28:38;5.05;;;3.60;;
50547;SDS011;38013;48.810;8.818;2022-07-23T04:31:04;4.72;;;3.20;;
50547;SDS011;38013;48.810;8.818;2022-07-23T04:33:31;6.38;;;3.40;;
50547;SDS011;38013;48.810;8.818;2022-07-23T04:36:00;4.78;;;3.15;;
50547;SDS011;38013;48.810;8.818;2022-07-23T04:38:26;5.63;;;3.53;;
50547;SDS011;38013;48.810;8.818;2022-07-23T04:40:57;5.40;;;3.35;;
50547;SDS011;38013;48.810;8.818;2022-07-23T04:43:22;5.22;;;3.50;;
50547;SDS011;38013;48.810;8.818;2022-07-23T04:45:49;6.43;;;3.40;;
50547;SDS011;38013;48.810;8.818;2022-07-23T04:48:15;5.43;;;3.17;;
50547;SDS011;38013;48.810;8.818;2022-07-23T04:50:42;6.93;;;3.22;;
50547;SDS011;38013;48.810;8.818;2022-07-23T04:53:15;5.45;;;3.40;;
50547;SDS011;38013;48.810;8.818;2022-07-23T04:55:42;6.45;;;3.70;;
50547;SDS011;38013;48.810;8.818;2022-07-23T04:58:08;8.27;;;3.45;;
50547;SDS011;38013;48.810;8.818;2022-07-23T05:00:34;5.00;;;3.50;;
50547;SDS011;38013;48.810;8.818;2022-07-23T05:03:00;5.47;;;3.47;;
50547;SDS011;38013;48.810;8.818;2022-07-23T05:05:27;5.82;;;3.65;;
50547;SDS011;38013;48.810;8.818;2022-07-23T05:07:58;5.65;;;3.20;;
50547;SDS011;38013;48.810;8.818;2022-07-23T05:10:23;5.70;;;3.33;;
50547;SDS011;38013;48.810;8.818;2022-07-23T05:12:49;5.28;;;3.42;;
50547;SDS011;38013;48.810;8.818;2022-07-23T05:15:15;6.55;;;3.60;;
50547;SDS011;38013;48.810;8.818;2022-07-23T05:17:41;6.80;;;3.70;;
50547;SDS011;38013;48.810;8.818;2022-07-23T05:20:12;5.20;;;3.20;;
50547;SDS011;38013;48.810;8.818;2022-07-23T05:22:39;5.75;;;3.55;;
50547;SDS011;38013;48.810;8.818;2022-07-23T05:25:05;8.35;;;3.55;;
50547;SDS011;38013;48.810;8.818;2022-07-23T05:27:31;7.63;;;3.47;;
50547;SDS011;38013;48.810;8.818;2022-07-23T05:29:58;5.82;;;3.75;;
50547;SDS011;38013;48.810;8.818;2022-07-23T05:32:24;6.95;;;3.10;;
50547;SDS011;38013;48.810;8.818;2022-07-23T05:35:04;5.18;;;3.30;;
50547;SDS011;38013;48.810;8.818;2022-07-23T05:37:31;4.57;;;3.17;;
50547;SDS011;38013;48.810;8.818;2022-07-23T05:40:04;4.80;;;3.10;;
50547;SDS011;38013;48.810;8.818;2022-07-23T05:42:33;5.88;;;3.38;;
50547;SDS011;38013;48.810;8.818;2022-07-23T05:45:00;4.78;;;3.03;;
50547;SDS011;38013;48.810;8.818;2022-07-23T05:47:26;5.18;;;3.50;;
50547;SDS011;38013;48.810;8.818;2022-07-23T05:49:53;9.30;;;3.40;;
50547;SDS011;38013;48.810;8.818;2022-07-23T05:52:26;7.22;;;3.70;;
50547;SDS011;38013;48.810;8.818;2022-07-23T05:57:42;8.05;;;3.35;;
50547;SDS011;38013;48.810;8.818;2022-07-23T06:00:08;5.78;;;3.30;;
50547;SDS011;38013;48.810;8.818;2022-07-23T06:02:44;5.32;;;3.28;;
50547;SDS011;38013;48.810;8.818;2022-07-23T06:05:11;4.75;;;3.10;;
50547;SDS011;38013;48.810;8.818;2022-07-23T06:07:38;7.32;;;3.58;;
50547;SDS011;38013;48.810;8.818;2022-07-23T06:10:04;6.00;;;3.83;;
50547;SDS011;38013;48.810;8.818;2022-07-23T06:12:30;6.57;;;3.45;;
50547;SDS011;38013;48.810;8.818;2022-07-23T06:14:56;7.55;;;3.88;;
50547;SDS011;38013;48.810;8.818;2022-07-23T06:17:22;6.57;;;4.00;;
50547;SDS011;38013;48.810;8.818;2022-07-23T06:19:47;5.30;;;3.60;;
50547;SDS011;38013;48.810;8.818;2022-07-23T06:22:14;6.05;;;3.30;;
50547;SDS011;38013;48.810;8.818;2022-07-23T06:24:40;6.07;;;3.38;;
50547;SDS011;38013;48.810;8.818;2022-07-23T06:27:06;5.15;;;3.42;;
50547;SDS011;38013;48.810;8.818;2022-07-23T06:29:32;5.80;;;3.40;;
50547;SDS011;38013;48.810;8.818;2022-07-23T06:31:58;5.90;;;3.38;;
50547;SDS011;38013;48.810;8.818;2022-07-23T06:34:23;6.15;;;3.50;;
50547;SDS011;38013;48.810;8.818;2022-07-23T06:36:49;8.30;;;3.50;;
50547;SDS011;38013;48.810;8.818;2022-07-23T06:39:15;6.80;;;3.88;;
50547;SDS011;38013;48.810;8.818;2022-07-23T06:41:46;7.43;;;4.28;;
50547;SDS011;38013;48.810;8.818;2022-07-23T06:44:12;9.95;;;3.88;;
50547;SDS011;38013;48.810;8.818;2022-07-23T06:46:40;11.70;;;3.90;;
50547;SDS011;38013;48.810;8.818;2022-07-23T06:49:05;8.95;;;3.92;;
50547;SDS011;38013;48.810;8.818;2022-07-23T06:51:31;8.00;;;4.00;;
50547;SDS011;38013;48.810;8.818;2022-07-23T06:54:00;7.32;;;4.25;;
50547;SDS011;38013;48.810;8.818;2022-07-23T06:56:26;10.88;;;4.40;;
50547;SDS011;38013;48.810;8.818;2022-07-23T06:58:53;8.55;;;4.22;;
50547;SDS011;38013;48.810;8.818;2022-07-23T07:01:19;10.48;;;4.60;;
50547;SDS011;38013;48.810;8.818;2022-07-23T07:03:45;7.90;;;4.38;;
50547;SDS011;38013;48.810;8.818;2022-07-23T07:06:11;9.15;;;4.47;;
50547;SDS011;38013;48.810;8.818;2022-07-23T07:08:38;7.15;;;4.35;;
50547;SDS011;38013;48.810;8.818;2022-07-23T07:11:04;8.45;;;4.47;;
50547;SDS011;38013;48.810;8.818;2022-07-23T07:13:29;6.90;;;4.70;;
50547;SDS011;38013;48.810;8.818;2022-07-23T07:15:55;7.57;;;4.63;;
50547;SDS011;38013;48.810;8.818;2022-07-23T07:18:21;6.38;;;4.20;;
50547;SDS011;38013;48.810;8.818;2022-07-23T07:20:47;8.82;;;4.45;;
50547;SDS011;38013;48.810;8.818;2022-07-23T07:23:12;6.50;;;4.28;;
50547;SDS011;38013;48.810;8.818;2022-07-23T07:25:38;9.07;;;4.78;;
50547;SDS011;38013;48.810;8.818;2022-07-23T07:28:04;7.20;;;4.18;;
50547;SDS011;38013;48.810;8.818;2022-07-23T07:30:30;8.02;;;4.63;;
50547;SDS011;38013;48.810;8.818;2022-07-23T07:32:56;6.47;;;4.35;;
50547;SDS011;38013;48.810;8.818;2022-07-23T07:35:22;6.57;;;4.35;;
50547;SDS011;38013;48.810;8.818;2022-07-23T07:37:49;10.75;;;4.93;;
50547;SDS011;38013;48.810;8.818;2022-07-23T07:40:15;7.50;;;4.53;;
50547;SDS011;38013;48.810;8.818;2022-07-23T07:42:44;6.78;;;4.93;;
50547;SDS011;38013;48.810;8.818;2022-07-23T07:45:15;7.00;;;4.25;;
50547;SDS011;38013;48.810;8.818;2022-07-23T07:47:41;7.00;;;4.38;;
50547;SDS011;38013;48.810;8.818;2022-07-23T07:50:07;6.32;;;4.22;;
50547;SDS011;38013;48.810;8.818;2022-07-23T07:52:34;8.70;;;4.68;;
50547;SDS011;38013;48.810;8.818;2022-07-23T07:55:04;6.88;;;4.65;;
50547;SDS011;38013;48.810;8.818;2022-07-23T07:57:32;6.65;;;4.43;;
50547;SDS011;38013;48.810;8.818;2022-07-23T07:59:57;6.93;;;4.70;;
50547;SDS011;38013;48.810;8.818;2022-07-23T08:02:23;9.13;;;5.32;;
50547;SDS011;38013;48.810;8.818;2022-07-23T08:04:49;8.68;;;5.22;;
50547;SDS011;38013;48.810;8.818;2022-07-23T08:07:15;9.45;;;4.85;;
50547;SDS011;38013;48.810;8.818;2022-07-23T08:09:41;8.05;;;4.80;;
50547;SDS011;38013;48.810;8.818;2022-07-23T08:12:07;6.78;;;4.43;;
50547;SDS011;38013;48.810;8.818;2022-07-23T08:14:33;6.47;;;4.20;;
50547;SDS011;38013;48.810;8.818;2022-07-23T08:16:59;8.18;;;4.43;;
50547;SDS011;38013;48.810;8.818;2022-07-23T08:19:25;6.30;;;4.32;;
50547;SDS011;38013;48.810;8.818;2022-07-23T08:21:51;7.95;;;4.38;;
50547;SDS011;38013;48.810;8.818;2022-07-23T08:24:17;7.07;;;4.25;;
50547;SDS011;38013;48.810;8.818;2022-07-23T08:26:42;8.93;;;4.50;;
50547;SDS011;38013;48.810;8.818;2022-07-23T08:29:08;9.10;;;4.85;;
50547;SDS011;38013;48.810;8.818;2022-07-23T08:31:34;7.88;;;4.30;;
50547;SDS011;38013;48.810;8.818;2022-07-23T08:34:00;7.25;;;4.20;;
50547;SDS011;38013;48.810;8.818;2022-07-23T08:36:27;7.10;;;3.95;;
50547;SDS011;38013;48.810;8.818;2022-07-23T08:38:57;5.68;;;3.85;;
50547;SDS011;38013;48.810;8.818;2022-07-23T08:41:28;4.82;;;3.55;;
50547;SDS011;38013;48.810;8.818;2022-07-23T08:43:54;5.55;;;3.75;;
50547;SDS011;38013;48.810;8.818;2022-07-23T08:46:21;6.20;;;3.70;;
50547;SDS011;38013;48.810;8.818;2022-07-23T08:48:49;6.45;;;4.13;;
50547;SDS011;38013;48.810;8.818;2022-07-23T08:51:15;9.25;;;3.65;;
50547;SDS011;38013;48.810;8.818;2022-07-23T08:53:41;7.90;;;4.00;;
50547;SDS011;38013;48.810;8.818;2022-07-23T08:56:09;6.60;;;3.95;;
50547;SDS011;38013;48.810;8.818;2022-07-23T08:58:35;5.57;;;3.80;;
50547;SDS011;38013;48.810;8.818;2022-07-23T09:01:01;6.18;;;4.18;;
50547;SDS011;38013;48.810;8.818;2022-07-23T09:03:28;5.70;;;3.65;;
50547;SDS011;38013;48.810;8.818;2022-07-23T09:05:58;5.60;;;3.80;;
50547;SDS011;38013;48.810;8.818;2022-07-23T09:16:27;7.65;;;4.00;;
50547;SDS011;38013;48.810;8.818;2022-07-23T09:18:56;5.40;;;3.40;;
50547;SDS011;38013;48.810;8.818;2022-07-23T09:21:28;7.88;;;3.85;;
50547;SDS011;38013;48.810;8.818;2022-07-23T09:23:59;6.60;;;3.85;;
50547;SDS011;38013;48.810;8.818;2022-07-23T09:26:40;4.40;;;3.15;;
50547;SDS011;38013;48.810;8.818;2022-07-23T09:29:24;5.45;;;3.00;;
50547;SDS011;38013;48.810;8.818;2022-07-23T09:31:51;9.73;;;3.35;;
50547;SDS011;38013;48.810;8.818;2022-07-23T09:34:21;5.72;;;3.63;;
50547;SDS011;38013;48.810;8.818;2022-07-23T09:36:53;5.80;;;3.22;;
50547;SDS011;38013;48.810;8.818;2022-07-23T09:39:34;4.88;;;3.53;;
50547;SDS011;38013;48.810;8.818;2022-07-23T09:42:19;4.53;;;3.17;;
50547;SDS011;38013;48.810;8.818;2022-07-23T09:44:54;4.70;;;3.40;;
50547;SDS011;38013;48.810;8.818;2022-07-23T09:47:22;6.22;;;3.55;;
50547;SDS011;38013;48.810;8.818;2022-07-23T09:50:07;5.97;;;3.37;;
50547;SDS011;38013;48.810;8.818;2022-07-23T09:52:35;5.97;;;3.30;;
50547;SDS011;38013;48.810;8.818;2022-07-23T09:55:13;6.25;;;3.40;;
50547;SDS011;38013;48.810;8.818;2022-07-23T09:57:41;6.60;;;3.53;;
50547;SDS011;38013;48.810;8.818;2022-07-23T10:00:10;4.25;;;3.20;;
50547;SDS011;38013;48.810;8.818;2022-07-23T10:02:37;5.70;;;3.50;;
50547;SDS011;38013;48.810;8.818;2022-07-23T10:05:22;5.05;;;3.47;;
50547;SDS011;38013;48.810;8.818;2022-07-23T10:08:12;5.38;;;3.70;;
50547;SDS011;38013;48.810;8.818;2022-07-23T10:10:57;5.22;;;3.10;;
50547;SDS011;38013;48.810;8.818;2022-07-23T10:13:50;4.93;;;3.10;;
50547;SDS011;38013;48.810;8.818;2022-07-23T10:16:28;7.20;;;3.78;;
50547;SDS011;38013;48.810;8.818;2022-07-23T10:18:54;4.45;;;3.35;;
50547;SDS011;38013;48.810;8.818;2022-07-23T10:24:10;6.70;;;3.70;;
50547;SDS011;38013;48.810;8.818;2022-07-23T10:32:26;6.78;;;3.90;;
50547;SDS011;38013;48.810;8.818;2022-07-23T10:37:47;4.93;;;3.33;;
50547;SDS011;38013;48.810;8.818;2022-07-23T10:40:17;4.90;;;3.42;;
50547;SDS011;38013;48.810;8.818;2022-07-23T10:42:47;5.25;;;3.42;;
50547;SDS011;38013;48.810;8.818;2022-07-23T10:45:23;5.38;;;3.40;;
50547;SDS011;38013;48.810;8.818;2022-07-23T10:48:22;6.22;;;3.45;;
50547;SDS011;38013;48.810;8.818;2022-07-23T10:51:07;9.07;;;3.80;;
50547;SDS011;38013;48.810;8.818;2022-07-23T10:56:16;6.47;;;3.40;;
50547;SDS011;38013;48.810;8.818;2022-07-23T10:59:13;5.10;;;3.45;;
50547;SDS011;38013;48.810;8.818;2022-07-23T11:01:39;5.72;;;3.50;;
50547;SDS011;38013;48.810;8.818;2022-07-23T11:04:05;5.18;;;3.72;;
50547;SDS011;38013;48.810;8.818;2022-07-23T11:09:23;5.07;;;3.40;;
50547;SDS011;38013;48.810;8.818;2022-07-23T11:17:28;5.88;;;3.20;;
50547;SDS011;38013;48.810;8.818;2022-07-23T11:25:10;4.80;;;3.38;;
50547;SDS011;38013;48.810;8.818;2022-07-23T11:28:11;5.32;;;2.97;;
50547;SDS011;38013;48.810;8.818;2022-07-23T11:30:42;4.78;;;3.40;;
50547;SDS011;38013;48.810;8.818;2022-07-23T11:35:36;6.25;;;3.88;;
50547;SDS011;38013;48.810;8.818;2022-07-23T11:38:08;5.35;;;3.45;;
50547;SDS011;38013;48.810;8.818;2022-07-23T11:40:38;6.57;;;3.30;;
50547;SDS011;38013;48.810;8.818;2022-07-23T11:43:06;6.15;;;3.42;;
50547;SDS011;38013;48.810;8.818;2022-07-23T11:45:38;5.40;;;3.20;;
50547;SDS011;38013;48.810;8.818;2022-07-23T11:48:19;5.05;;;3.22;;
50547;SDS011;38013;48.810;8.818;2022-07-23T11:50:51;6.63;;;4.00;;
50547;SDS011;38013;48.810;8.818;2022-07-23T11:53:22;6.20;;;3.40;;
50547;SDS011;38013;48.810;8.818;2022-07-23T11:56:09;6.82;;;3.67;;
50547;SDS011;38013;48.810;8.818;2022-07-23T11:58:36;8.15;;;3.45;;
50547;SDS011;38013;48.810;8.818;2022-07-23T12:01:03;5.25;;;3.47;;
50547;SDS011;38013;48.810;8.818;2022-07-23T12:03:30;5.20;;;3.60;;
50547;SDS011;38013;48.810;8.818;2022-07-23T12:05:56;5.38;;;3.60;;
50547;SDS011;38013;48.810;8.818;2022-07-23T12:08:23;6.68;;;3.60;;
50547;SDS011;38013;48.810;8.818;2022-07-23T12:10:49;5.13;;;3.35;;
50547;SDS011;38013;48.810;8.818;2022-07-23T12:13:16;6.82;;;3.60;;
50547;SDS011;38013;48.810;8.818;2022-07-23T12:15:49;6.63;;;3.60;;
50547;SDS011;38013;48.810;8.818;2022-07-23T12:18:18;5.63;;;3.25;;
50547;SDS011;38013;48.810;8.818;2022-07-23T12:20:48;4.65;;;3.28;;
50547;SDS011;38013;48.810;8.818;2022-07-23T12:23:18;7.10;;;3.63;;
50547;SDS011;38013;48.810;8.818;2022-07-23T12:25:46;5.30;;;3.33;;
50547;SDS011;38013;48.810;8.818;2022-07-23T12:28:16;6.38;;;3.60;;
50547;SDS011;38013;48.810;8.818;2022-07-23T12:30:57;5.00;;;3.40;;
50547;SDS011;38013;48.810;8.818;2022-07-23T12:33:28;6.07;;;3.75;;
50547;SDS011;38013;48.810;8.818;2022-07-23T12:36:05;5.30;;;3.22;;
50547;SDS011;38013;48.810;8.818;2022-07-23T12:38:38;5.07;;;3.40;;
50547;SDS011;38013;48.810;8.818;2022-07-23T12:41:06;4.28;;;3.13;;
50547;SDS011;38013;48.810;8.818;2022-07-23T12:43:32;4.85;;;3.40;;
50547;SDS011;38013;48.810;8.818;2022-07-23T12:46:09;5.68;;;3.92;;
50547;SDS011;38013;48.810;8.818;2022-07-23T12:54:06;5.07;;;3.40;;
50547;SDS011;38013;48.810;8.818;2022-07-23T12:56:35;5.90;;;3.85;;
50547;SDS011;38013;48.810;8.818;2022-07-23T13:06:30;6.18;;;3.28;;
50547;SDS011;38013;48.810;8.818;2022-07-23T13:08:59;6.18;;;3.50;;
50547;SDS011;38013;48.810;8.818;2022-07-23T13:11:25;5.63;;;3.53;;
50547;SDS011;38013;48.810;8.818;2022-07-23T13:13:51;4.65;;;3.45;;
50547;SDS011;38013;48.810;8.818;2022-07-23T13:16:17;6.43;;;3.38;;
50547;SDS011;38013;48.810;8.818;2022-07-23T13:18:43;4.45;;;3.47;;
50547;SDS011;38013;48.810;8.818;2022-07-23T13:21:08;5.78;;;3.67;;
50547;SDS011;38013;48.810;8.818;2022-07-23T13:23:34;6.82;;;3.50;;
50547;SDS011;38013;48.810;8.818;2022-07-23T13:26:01;6.47;;;4.00;;
50547;SDS011;38013;48.810;8.818;2022-07-23T13:28:26;6.15;;;3.53;;
50547;SDS011;38013;48.810;8.818;2022-07-23T13:30:52;7.07;;;3.88;;
50547;SDS011;38013;48.810;8.818;2022-07-23T13:33:19;4.85;;;3.50;;
50547;SDS011;38013;48.810;8.818;2022-07-23T13:35:47;5.63;;;4.00;;
50547;SDS011;38013;48.810;8.818;2022-07-23T13:38:13;5.90;;;3.47;;
50547;SDS011;38013;48.810;8.818;2022-07-23T13:40:40;5.38;;;3.40;;
50547;SDS011;38013;48.810;8.818;2022-07-23T13:43:10;5.05;;;3.30;;
50547;SDS011;38013;48.810;8.818;2022-07-23T13:45:39;5.93;;;3.78;;
50547;SDS011;38013;48.810;8.818;2022-07-23T13:48:07;6.13;;;3.65;;
50547;SDS011;38013;48.810;8.818;2022-07-23T13:50:34;6.43;;;3.90;;
50547;SDS011;38013;48.810;8.818;2022-07-23T13:53:01;5.63;;;3.40;;
50547;SDS011;38013;48.810;8.818;2022-07-23T13:55:30;6.18;;;3.58;;
50547;SDS011;38013;48.810;8.818;2022-07-23T13:57:57;4.93;;;3.45;;
50547;SDS011;38013;48.810;8.818;2022-07-23T14:00:23;5.40;;;3.65;;
50547;SDS011;38013;48.810;8.818;2022-07-23T14:02:49;4.50;;;3.42;;
50547;SDS011;38013;48.810;8.818;2022-07-23T14:05:15;5.93;;;3.38;;
50547;SDS011;38013;48.810;8.818;2022-07-23T14:07:41;6.82;;;3.70;;
50547;SDS011;38013;48.810;8.818;2022-07-23T14:10:09;6.15;;;3.42;;
50547;SDS011;38013;48.810;8.818;2022-07-23T14:12:35;6.03;;;3.45;;
50547;SDS011;38013;48.810;8.818;2022-07-23T14:15:02;4.82;;;3.53;;
50547;SDS011;38013;48.810;8.818;2022-07-23T14:17:31;4.78;;;3.38;;
50547;SDS011;38013;48.810;8.818;2022-07-23T14:19:57;6.50;;;3.22;;
50547;SDS011;38013;48.810;8.818;2022-07-23T14:22:24;4.85;;;3.35;;
50547;SDS011;38013;48.810;8.818;2022-07-23T14:24:50;5.78;;;3.50;;
50547;SDS011;38013;48.810;8.818;2022-07-23T14:27:16;4.82;;;3.25;;
50547;SDS011;38013;48.810;8.818;2022-07-23T14:29:42;6.95;;;3.83;;
50547;SDS011;38013;48.810;8.818;2022-07-23T14:32:08;6.28;;;3.70;;
50547;SDS011;38013;48.810;8.818;2022-07-23T14:34:34;6.15;;;3.45;;
50547;SDS011;38013;48.810;8.818;2022-07-23T14:37:00;5.30;;;3.83;;
50547;SDS011;38013;48.810;8.818;2022-07-23T14:39:26;7.38;;;3.47;;
50547;SDS011;38013;48.810;8.818;2022-07-23T14:41:52;6.15;;;3.63;;
50547;SDS011;38013;48.810;8.818;2022-07-23T14:44:18;5.00;;;3.55;;
50547;SDS011;38013;48.810;8.818;2022-07-23T14:46:44;4.57;;;3.35;;
50547;SDS011;38013;48.810;8.818;2022-07-23T14:49:10;5.53;;;3.47;;
50547;SDS011;38013;48.810;8.818;2022-07-23T14:51:36;4.53;;;3.38;;
50547;SDS011;38013;48.810;8.818;2022-07-23T14:54:02;5.30;;;3.83;;
50547;SDS011;38013;48.810;8.818;2022-07-23T14:56:29;5.68;;;3.70;;
50547;SDS011;38013;48.810;8.818;2022-07-23T14:58:55;8.27;;;4.13;;
50547;SDS011;38013;48.810;8.818;2022-07-23T15:01:21;5.78;;;3.70;;
50547;SDS011;38013;48.810;8.818;2022-07-23T15:03:48;5.20;;;3.53;;
50547;SDS011;38013;48.810;8.818;2022-07-23T15:06:15;6.78;;;3.42;;
50547;SDS011;38013;48.810;8.818;2022-07-23T15:08:42;5.90;;;3.60;;
50547;SDS011;38013;48.810;8.818;2022-07-23T15:11:08;6.20;;;3.90;;
50547;SDS011;38013;48.810;8.818;2022-07-23T15:13:35;4.43;;;3.33;;
50547;SDS011;38013;48.810;8.818;2022-07-23T15:16:02;6.15;;;3.72;;
50547;SDS011;38013;48.810;8.818;2022-07-23T15:18:29;5.60;;;3.50;;
50547;SDS011;38013;48.810;8.818;2022-07-23T15:20:56;5.43;;;3.58;;
50547;SDS011;38013;48.810;8.818;2022-07-23T15:23:22;6.05;;;3.60;;
50547;SDS011;38013;48.810;8.818;2022-07-23T15:25:48;6.47;;;3.63;;
50547;SDS011;38013;48.810;8.818;2022-07-23T15:28:14;5.22;;;3.70;;
50547;SDS011;38013;48.810;8.818;2022-07-23T15:30:40;6.13;;;4.05;;
50547;SDS011;38013;48.810;8.818;2022-07-23T15:33:06;5.28;;;3.42;;
50547;SDS011;38013;48.810;8.818;2022-07-23T15:35:32;5.32;;;3.60;;
50547;SDS011;38013;48.810;8.818;2022-07-23T15:37:58;5.80;;;3.80;;
50547;SDS011;38013;48.810;8.818;2022-07-23T15:40:23;4.80;;;3.58;;
50547;SDS011;38013;48.810;8.818;2022-07-23T15:42:50;5.47;;;3.50;;
50547;SDS011;38013;48.810;8.818;2022-07-23T15:45:16;5.40;;;3.50;;
50547;SDS011;38013;48.810;8.818;2022-07-23T15:47:41;5.60;;;4.00;;
50547;SDS011;38013;48.810;8.818;2022-07-23T15:50:08;9.68;;;4.05;;